Glendale, UT (84729)

10:00 PM MDT on May 05, 2015 (GMT -0600)
East of town | | Change Station
CLOSE
Current Station
Personal Weather Station
Location: Kanab, UT
Elevation: 5146 ft
Nearby Weather Stations

Elev 5146 ft 37.02 °N, 112.44 °W | Updated 13 seconds ago

Rain
Rain
50.5 °F
Feels Like 50.5 °F
N
2.0
Wind Variable Wind from NNW
Gusts 4.0 mph

Today
High -- | Low -- °F
--% Chance of Precip.
Yesterday
High -- | Low -- °F
Precip. -- in
6:31 AM 8:23 PM
Waning Gibbous, 96% visible
Pressure 29.94 in
Visibility 10.0 miles
Clouds Overcast 6000 ft
Dew Point 50 °F
Humidity 97%
Rainfall 0.13 in
Snow Depth Not available.
UV 0 out of 12
Pollen 7.30 out of 12
Air Quality Not available.
Flu Activity Regional
METAR KAZC 060315Z AUTO 28008G16KT 10SM +RA OVC060 13/09 A2994 RMK AO2 LTG DSNT E AND W P0003 T01280092

More Conditions Fewer Conditions

Pressure 29.94 in
Visibility 10.0 miles
Clouds Overcast 6000 ft
Dew Point 50 °F
Humidity 97%
Rainfall 0.13 in
Snow Depth Not available.
UV 0 out of 12
Pollen 7.30 out of 12
Air Quality Not available.
Flu Activity Regional
METAR KAZC 060315Z AUTO 28008G16KT 10SM +RA OVC060 13/09 A2994 RMK AO2 LTG DSNT E AND W P0003 T01280092

More Conditions Fewer Conditions

10-Day Weather Forecast

Almanac

Astronomy

May. 05, 2015 Rise Set
Actual Time
Civil Twilight
Nautical Twilight
Astronomical Twilight
Moon
Length of Visible Light
Length of Day
Tomorrow will be .
, % of the Moon is Illuminated

Today's Extremes

State Highs State Lows

Community

WunderPhotos

Upload Photos

1,819,053 photos uploaded!

WunderBlogs® & News

Nearby

Air Quality

  Air Quality AQ Index Pollutant
Not available.

Snow Depth

Station Depth Elevation

Earthquake Activity

City Distance Mag. Time & Date
Minimum magnitude displayed is 2.5.

Coastal Water Temperatures

Place Temperature

Stations

Nearby Weather Stations

Station Location Temp. Windchill Dew Point Humidity Wind Precip. Elev Updated Type